Time;durP1;ratioP1;P1;durP2;ratioP2;P2;SDS_P1;SDS_P2;PMS_P1;PMS_P2;Temp;Humidity;BMP_temperature;BMP_pressure;BME280_temperature;BME280_humidity;BME280_pressure;Samples;Min_cycle;Max_cycle;Signal;HPM_P1;HPM_P2
2020/12/15 00:02:20;;;;;;;;;;;3.20;99.90;;;;;;5033432;28;19943;-74
2020/12/15 00:04:45;;;;;;;;;;;3.10;99.90;;;;;;5033294;28;20329;-74
2020/12/15 00:07:11;;;;;;;;;;;3.10;99.90;;;;;;5033071;28;19948;-75
2020/12/15 00:09:36;;;;;;;;;;;3.10;99.90;;;;;;5033523;28;20293;-74
2020/12/15 00:12:02;;;;;;;;;;;3.20;99.90;;;;;;5033579;28;19916;-74
2020/12/15 00:14:27;;;;;;;;;;;3.20;99.90;;;;;;5024506;28;19917;-74
2020/12/15 00:16:57;;;;;;;;;;;3.20;99.90;;;;;;5030058;28;20494;-74
2020/12/15 00:19:22;;;;;;;;;;;3.10;99.90;;;;;;5021830;28;20342;-74
2020/12/15 00:21:47;;;;;;;;;;;3.00;99.90;;;;;;5032641;28;19975;-74
2020/12/15 00:24:13;;;;;;;;;;;3.00;99.90;;;;;;5033138;28;19909;-74
2020/12/15 00:26:38;;;;;;;;;;;3.00;99.90;;;;;;5027598;28;20012;-74
2020/12/15 00:29:04;;;;;;;;;;;3.10;99.90;;;;;;5011915;28;19913;-74
2020/12/15 00:31:34;;;;;;;;;;;3.10;99.90;;;;;;5015315;28;20014;-75
2020/12/15 00:33:59;;;;;;;;;;;3.10;99.90;;;;;;5031492;28;20409;-74
2020/12/15 00:36:25;;;;;;;;;;;3.10;99.90;;;;;;5030411;28;19910;-74
2020/12/15 00:38:50;;;;;;;;;;;3.10;99.90;;;;;;5019358;28;20329;-74
2020/12/15 00:41:16;;;;;;;;;;;3.10;99.90;;;;;;5012880;28;19941;-75
2020/12/15 00:43:41;;;;;;;;;;;3.10;99.90;;;;;;5012063;28;20420;-73
2020/12/15 00:46:11;;;;;;;;;;;3.20;99.90;;;;;;5011145;28;19909;-74
2020/12/15 00:48:36;;;;;;;;;;;3.30;99.90;;;;;;5012367;28;19917;-74
2020/12/15 00:51:02;;;;;;;;;;;3.30;99.90;;;;;;5012479;28;19918;-77
2020/12/15 00:53:27;;;;;;;;;;;3.30;99.90;;;;;;5021991;28;19967;-73
2020/12/15 00:55:53;;;;;;;;;;;3.30;99.90;;;;;;5012700;28;19941;-74
2020/12/15 00:58:18;;;;;;;;;;;3.30;99.90;;;;;;5012180;28;20000;-75
2020/12/15 01:00:44;;;;;;;;;;;3.40;99.90;;;;;;5012678;28;19909;-74
2020/12/15 01:03:09;;;;;;;;;;;3.40;99.90;;;;;;5012556;28;19924;-74
2020/12/15 01:05:35;;;;;;;;;;;3.40;99.90;;;;;;5012489;28;19909;-74
2020/12/15 01:08:00;;;;;;;;;;;3.50;99.90;;;;;;5012915;28;19909;-74
2020/12/15 01:10:26;;;;;;;;;;;3.40;99.90;;;;;;5012732;28;19913;-74
2020/12/15 01:12:51;;;;;;;;;;;3.40;99.90;;;;;;5012114;28;20317;-74
2020/12/15 01:15:16;;;;;;;;;;;3.50;99.90;;;;;;5011898;28;19964;-77
2020/12/15 01:17:42;;;;;;;;;;;3.50;99.90;;;;;;5012022;28;19957;-74
2020/12/15 01:20:07;;;;;;;;;;;3.60;99.90;;;;;;5012394;28;20375;-74
2020/12/15 01:22:33;;;;;;;;;;;3.60;99.90;;;;;;5012933;28;19925;-74
2020/12/15 01:24:58;;;;;;;;;;;3.60;99.90;;;;;;5026459;28;19917;-74
2020/12/15 01:27:24;;;;;;;;;;;3.60;99.90;;;;;;5031204;28;19995;-74
2020/12/15 01:29:49;;;;;;;;;;;3.70;99.90;;;;;;5030553;28;20370;-75
2020/12/15 01:32:14;;;;;;;;;;;3.70;99.90;;;;;;5028790;28;19913;-74
2020/12/15 01:34:40;;;;;;;;;;;3.60;99.90;;;;;;5027741;28;19910;-74
2020/12/15 01:37:06;;;;;;;;;;;3.70;99.90;;;;;;5028621;28;19963;-74
2020/12/15 01:39:31;;;;;;;;;;;3.60;99.90;;;;;;5029122;28;20585;-75
2020/12/15 01:41:57;;;;;;;;;;;3.60;99.90;;;;;;5028818;28;19913;-77
2020/12/15 01:44:22;;;;;;;;;;;3.60;99.90;;;;;;5028769;28;20278;-74
2020/12/15 01:46:49;;;;;;;;;;;3.70;99.90;;;;;;5030105;28;20011;-74
2020/12/15 01:49:17;;;;;;;;;;;3.70;99.90;;;;;;5031533;28;19914;-74
2020/12/15 01:51:44;;;;;;;;;;;3.70;99.90;;;;;;5030498;28;20000;-75
2020/12/15 01:54:09;;;;;;;;;;;3.70;99.90;;;;;;5015614;28;19910;-76
2020/12/15 01:56:35;;;;;;;;;;;3.70;99.90;;;;;;5030794;28;20298;-74
2020/12/15 01:59:02;;;;;;;;;;;3.70;99.90;;;;;;5030122;28;19909;-74
2020/12/15 02:01:28;;;;;;;;;;;3.70;99.90;;;;;;5031371;28;19917;-75
2020/12/15 02:03:53;;;;;;;;;;;3.70;99.90;;;;;;5030199;28;19909;-74
2020/12/15 02:06:19;;;;;;;;;;;3.70;99.90;;;;;;5031224;28;19916;-74
2020/12/15 02:08:45;;;;;;;;;;;3.80;99.90;;;;;;5031511;28;20007;-74
2020/12/15 02:11:11;;;;;;;;;;;3.70;99.90;;;;;;5028974;28;20422;-74
2020/12/15 02:13:37;;;;;;;;;;;3.70;99.90;;;;;;5031183;28;20263;-74
2020/12/15 02:16:03;;;;;;;;;;;3.70;99.90;;;;;;5030959;28;19963;-75
2020/12/15 02:18:29;;;;;;;;;;;3.70;99.90;;;;;;5031335;28;19913;-74
2020/12/15 02:20:54;;;;;;;;;;;3.70;99.90;;;;;;5031416;28;19909;-76
2020/12/15 02:23:20;;;;;;;;;;;3.70;99.90;;;;;;5022720;28;19917;-74
2020/12/15 02:25:45;;;;;;;;;;;3.70;99.90;;;;;;5029496;28;19909;-74
2020/12/15 02:28:11;;;;;;;;;;;3.80;99.90;;;;;;5031127;28;19909;-74
2020/12/15 02:30:36;;;;;;;;;;;3.70;99.90;;;;;;5031243;28;19953;-76
2020/12/15 02:33:02;;;;;;;;;;;3.60;99.90;;;;;;5031150;28;20340;-74
2020/12/15 02:35:27;;;;;;;;;;;3.70;99.90;;;;;;5029788;28;19917;-75
2020/12/15 02:37:53;;;;;;;;;;;3.70;99.90;;;;;;5030837;28;19909;-75
2020/12/15 02:40:18;;;;;;;;;;;3.80;99.90;;;;;;5031130;28;19988;-74
2020/12/15 02:42:43;;;;;;;;;;;3.80;99.90;;;;;;5030825;28;19913;-74
2020/12/15 02:45:09;;;;;;;;;;;3.80;99.90;;;;;;5030994;28;20452;-75
2020/12/15 02:47:34;;;;;;;;;;;3.80;99.90;;;;;;5030671;28;20354;-78
2020/12/15 02:50:00;;;;;;;;;;;3.90;99.90;;;;;;5029688;28;19923;-74
2020/12/15 02:52:25;;;;;;;;;;;3.90;99.90;;;;;;5027663;28;20423;-74
2020/12/15 02:54:51;;;;;;;;;;;3.90;99.90;;;;;;5010989;28;19910;-75
2020/12/15 02:57:17;;;;;;;;;;;3.90;99.90;;;;;;5010743;28;19956;-74
2020/12/15 02:59:43;;;;;;;;;;;3.90;99.90;;;;;;5011155;28;20398;-74
2020/12/15 03:02:09;;;;;;;;;;;3.80;99.90;;;;;;5010982;28;19914;-74
2020/12/15 03:04:34;;;;;;;;;;;3.90;99.90;;;;;;5011111;28;19981;-74
2020/12/15 03:07:00;;;;;;;;;;;4.00;99.90;;;;;;5010641;28;19918;-74
2020/12/15 03:09:25;;;;;;;;;;;4.10;99.90;;;;;;5010787;28;19936;-75
2020/12/15 03:11:54;;;;;;;;;;;4.20;99.90;;;;;;5011017;28;19913;-74
2020/12/15 03:14:20;;;;;;;;;;;4.30;99.90;;;;;;5010929;28;19910;-75
2020/12/15 03:16:45;;;;;;;;;;;4.40;99.90;;;;;;5010571;28;20000;-77
2020/12/15 03:19:11;;;;;;;;;;;4.40;99.90;;;;;;5011083;28;19910;-74
2020/12/15 03:21:36;;;;;;;;;;;4.50;99.90;;;;;;5012872;28;19932;-74
2020/12/15 03:24:05;;;;;;;;;;;4.60;99.90;;;;;;5028543;28;19909;-74
2020/12/15 03:26:31;;;;;;;;;;;4.70;99.90;;;;;;5033565;28;19909;-74
2020/12/15 03:28:56;;;;;;;;;;;4.70;99.90;;;;;;5034116;28;20388;-74
2020/12/15 03:31:22;;;;;;;;;;;4.70;99.90;;;;;;5034128;28;19909;-75
2020/12/15 03:33:48;;;;;;;;;;;4.80;99.90;;;;;;5034074;28;20422;-74
2020/12/15 03:36:14;;;;;;;;;;;4.80;99.90;;;;;;5033783;28;20027;-76
2020/12/15 03:38:39;;;;;;;;;;;4.80;99.90;;;;;;5033968;28;20440;-74
2020/12/15 03:41:05;;;;;;;;;;;4.80;99.90;;;;;;5033724;28;20263;-74
2020/12/15 03:43:30;;;;;;;;;;;4.80;99.90;;;;;;5033516;28;19983;-75
2020/12/15 03:45:56;;;;;;;;;;;4.90;99.90;;;;;;5033472;28;19913;-77
2020/12/15 03:48:21;;;;;;;;;;;4.80;99.90;;;;;;5033754;28;19909;-74
2020/12/15 03:50:47;;;;;;;;;;;4.80;99.90;;;;;;5032429;28;19917;-74
2020/12/15 03:53:12;;;;;;;;;;;4.90;99.90;;;;;;5025474;28;20282;-75
2020/12/15 03:55:38;;;;;;;;;;;4.80;99.90;;;;;;5024794;28;19909;-77
2020/12/15 03:58:03;;;;;;;;;;;4.90;99.90;;;;;;5033480;28;19909;-74
2020/12/15 04:00:29;;;;;;;;;;;4.90;99.90;;;;;;5033505;28;20000;-75
2020/12/15 04:02:54;;;;;;;;;;;4.90;99.90;;;;;;5033311;28;19913;-74
2020/12/15 04:05:20;;;;;;;;;;;4.70;99.90;;;;;;5033388;28;20035;-74
2020/12/15 04:07:45;;;;;;;;;;;4.80;99.90;;;;;;5033016;28;19924;-75
2020/12/15 04:10:11;;;;;;;;;;;4.80;99.90;;;;;;5032011;28;19944;-76
2020/12/15 04:12:36;;;;;;;;;;;4.80;99.90;;;;;;5033156;28;20448;-74
2020/12/15 04:15:05;;;;;;;;;;;4.90;99.90;;;;;;5032072;28;19920;-74
2020/12/15 04:17:31;;;;;;;;;;;4.90;99.90;;;;;;5031594;28;20365;-76
2020/12/15 04:19:56;;;;;;;;;;;5.00;99.90;;;;;;5033289;28;19955;-74
2020/12/15 04:22:22;;;;;;;;;;;5.00;99.90;;;;;;5031569;28;19913;-74
2020/12/15 04:24:47;;;;;;;;;;;5.00;99.90;;;;;;5012965;28;20350;-74
2020/12/15 04:27:13;;;;;;;;;;;5.00;99.90;;;;;;5012804;28;20008;-77
2020/12/15 04:29:38;;;;;;;;;;;5.00;99.90;;;;;;5013146;28;20263;-74
2020/12/15 04:32:04;;;;;;;;;;;5.00;99.90;;;;;;5012242;28;19910;-75
2020/12/15 04:34:29;;;;;;;;;;;5.00;99.90;;;;;;5011701;28;19914;-74
2020/12/15 04:36:56;;;;;;;;;;;5.00;99.90;;;;;;5011463;28;20325;-74
2020/12/15 04:39:22;;;;;;;;;;;5.00;99.90;;;;;;5013359;28;19910;-75
2020/12/15 04:41:47;;;;;;;;;;;5.10;99.90;;;;;;5011573;28;19968;-77
2020/12/15 04:44:13;;;;;;;;;;;5.00;99.90;;;;;;5011766;28;20286;-74
2020/12/15 04:46:57;;;;;;;;;;;4.90;99.90;;;;;;5012558;28;19916;-74
2020/12/15 04:49:26;;;;;;;;;;;4.80;99.90;;;;;;5011347;28;19917;-76
2020/12/15 04:52:02;;;;;;;;;;;4.80;99.90;;;;;;5012577;28;20386;-75
2020/12/15 04:54:29;;;;;;;;;;;4.80;99.90;;;;;;5013237;28;19916;-76
2020/12/15 04:56:56;;;;;;;;;;;4.90;99.90;;;;;;5012405;28;19910;-75
2020/12/15 04:59:23;;;;;;;;;;;4.90;99.90;;;;;;5012737;28;19909;-78
2020/12/15 05:01:49;;;;;;;;;;;4.90;99.90;;;;;;5012546;28;19913;-74
2020/12/15 05:04:15;;;;;;;;;;;5.00;99.90;;;;;;5012604;28;20294;-74
2020/12/15 05:06:42;;;;;;;;;;;5.00;99.90;;;;;;5012191;28;19917;-74
2020/12/15 05:09:08;;;;;;;;;;;5.00;99.90;;;;;;5011263;28;19917;-75
2020/12/15 05:11:33;;;;;;;;;;;5.00;99.90;;;;;;5011017;28;20318;-75
2020/12/15 05:13:59;;;;;;;;;;;5.00;99.90;;;;;;5011114;28;19909;-75
2020/12/15 05:16:35;;;;;;;;;;;4.90;99.90;;;;;;5012112;28;19924;-77
2020/12/15 05:19:04;;;;;;;;;;;4.90;99.90;;;;;;5012306;28;20366;-74
2020/12/15 05:21:29;;;;;;;;;;;4.80;99.90;;;;;;5010921;28;19920;-74
2020/12/15 05:23:55;;;;;;;;;;;4.70;99.90;;;;;;5025316;28;19909;-74
2020/12/15 05:26:24;;;;;;;;;;;4.70;99.90;;;;;;5031728;28;19951;-74
2020/12/15 05:29:06;;;;;;;;;;;4.80;99.90;;;;;;5031909;28;19913;-74
2020/12/15 05:31:32;;;;;;;;;;;4.80;99.90;;;;;;5031773;28;19955;-74
2020/12/15 05:33:59;;;;;;;;;;;4.80;99.90;;;;;;5031687;28;19913;-74
2020/12/15 05:36:24;;;;;;;;;;;4.80;99.90;;;;;;5031513;28;19915;-74
2020/12/15 05:39:02;;;;;;;;;;;4.80;99.90;;;;;;5031727;28;19999;-74
2020/12/15 05:41:27;;;;;;;;;;;4.80;99.90;;;;;;5031671;28;20440;-76
2020/12/15 05:43:55;;;;;;;;;;;4.90;99.90;;;;;;5031245;28;19948;-75
2020/12/15 05:46:21;;;;;;;;;;;4.90;99.90;;;;;;5031241;28;19913;-75
2020/12/15 05:48:49;;;;;;;;;;;4.90;99.90;;;;;;5031441;28;19979;-77
2020/12/15 05:51:15;;;;;;;;;;;4.90;99.90;;;;;;5031754;28;19909;-77
2020/12/15 05:53:40;;;;;;;;;;;4.90;99.90;;;;;;5019179;28;20434;-75
2020/12/15 05:56:06;;;;;;;;;;;4.90;99.90;;;;;;5011267;28;19910;-74
2020/12/15 05:58:32;;;;;;;;;;;4.90;99.90;;;;;;5011520;28;19916;-74
2020/12/15 06:00:57;;;;;;;;;;;5.00;99.90;;;;;;5011676;28;19910;-75
2020/12/15 06:03:22;;;;;;;;;;;5.10;99.90;;;;;;5010372;28;19960;-74
2020/12/15 06:05:49;;;;;;;;;;;5.10;99.90;;;;;;5009953;28;19968;-74
2020/12/15 06:08:14;;;;;;;;;;;5.20;99.90;;;;;;5011632;28;20012;-74
2020/12/15 06:10:41;;;;;;;;;;;5.20;99.90;;;;;;5011697;28;19965;-75
2020/12/15 06:13:07;;;;;;;;;;;5.20;99.90;;;;;;5011345;28;19917;-74
2020/12/15 06:15:32;;;;;;;;;;;5.20;99.90;;;;;;5011441;28;19910;-74
2020/12/15 06:18:02;;;;;;;;;;;5.20;99.90;;;;;;5011426;28;19909;-75
2020/12/15 06:20:31;;;;;;;;;;;5.20;99.90;;;;;;5011771;28;19909;-77
2020/12/15 06:22:57;;;;;;;;;;;5.10;99.90;;;;;;5016678;28;19913;-74
2020/12/15 06:25:24;;;;;;;;;;;5.10;99.90;;;;;;5013323;28;19909;-74
2020/12/15 06:27:58;;;;;;;;;;;5.10;99.90;;;;;;5010951;28;19967;-74
2020/12/15 06:30:27;;;;;;;;;;;5.10;99.90;;;;;;5011446;28;19909;-74
2020/12/15 06:32:59;;;;;;;;;;;5.10;99.90;;;;;;5011275;28;19910;-75
2020/12/15 06:35:25;;;;;;;;;;;5.10;99.90;;;;;;5011288;28;19989;-74
2020/12/15 06:37:50;;;;;;;;;;;5.10;99.90;;;;;;5011031;28;19953;-75
2020/12/15 06:40:17;;;;;;;;;;;5.20;99.90;;;;;;5011138;28;20383;-74
2020/12/15 06:42:50;;;;;;;;;;;5.30;99.90;;;;;;5011294;28;20426;-74
2020/12/15 06:45:15;;;;;;;;;;;5.30;99.90;;;;;;5011418;28;19910;-74
2020/12/15 06:47:41;;;;;;;;;;;5.30;99.90;;;;;;5010916;28;19980;-75
2020/12/15 06:50:10;;;;;;;;;;;5.30;99.90;;;;;;5011233;28;20009;-77
2020/12/15 06:52:36;;;;;;;;;;;5.20;99.90;;;;;;5011751;28;20000;-74
2020/12/15 06:55:01;;;;;;;;;;;5.20;99.90;;;;;;5010891;28;19980;-75
2020/12/15 06:57:31;;;;;;;;;;;5.30;99.90;;;;;;5013151;28;19964;-75
2020/12/15 06:59:57;;;;;;;;;;;5.30;99.90;;;;;;5015059;28;19993;-75
2020/12/15 07:02:27;;;;;;;;;;;5.30;99.90;;;;;;5013346;28;20392;-75
2020/12/15 07:04:53;;;;;;;;;;;5.20;99.90;;;;;;5014638;28;20306;-76
2020/12/15 07:07:18;;;;;;;;;;;5.20;99.90;;;;;;5014406;28;19916;-75
2020/12/15 07:09:44;;;;;;;;;;;5.20;99.90;;;;;;5014687;28;19920;-74
2020/12/15 07:12:10;;;;;;;;;;;5.20;99.90;;;;;;5013314;28;19914;-75
2020/12/15 07:14:36;;;;;;;;;;;5.10;99.90;;;;;;5028144;28;19909;-74
2020/12/15 07:17:01;;;;;;;;;;;5.10;99.90;;;;;;5034158;28;20028;-75
2020/12/15 07:19:27;;;;;;;;;;;5.00;99.90;;;;;;5034504;28;20297;-74
2020/12/15 07:21:53;;;;;;;;;;;5.00;99.90;;;;;;5033974;28;19999;-77
2020/12/15 07:24:18;;;;;;;;;;;5.00;99.90;;;;;;5025714;28;20662;-75
2020/12/15 07:26:44;;;;;;;;;;;5.10;99.90;;;;;;5015762;28;19914;-74
2020/12/15 07:29:10;;;;;;;;;;;5.10;99.90;;;;;;5013936;28;19914;-74
2020/12/15 07:31:35;;;;;;;;;;;5.10;99.90;;;;;;5014553;28;19917;-77
2020/12/15 07:34:15;;;;;;;;;;;5.20;99.90;;;;;;5022992;28;19909;-75
2020/12/15 07:36:41;;;;;;;;;;;5.30;99.90;;;;;;5017632;28;20000;-74
2020/12/15 07:39:08;;;;;;;;;;;5.40;99.90;;;;;;5032545;28;19936;-74
2020/12/15 07:41:36;;;;;;;;;;;5.40;99.90;;;;;;5033598;28;20356;-78
2020/12/15 07:44:03;;;;;;;;;;;5.50;99.90;;;;;;5033062;28;19910;-79
2020/12/15 07:46:29;;;;;;;;;;;5.50;99.90;;;;;;5012869;28;19918;-75
2020/12/15 07:48:54;;;;;;;;;;;5.60;99.90;;;;;;5013553;28;19955;-75
2020/12/15 07:51:20;;;;;;;;;;;5.60;99.90;;;;;;5013619;28;19963;-76
2020/12/15 07:53:49;;;;;;;;;;;5.70;99.90;;;;;;5016546;28;19957;-74
2020/12/15 07:56:15;;;;;;;;;;;5.70;99.90;;;;;;5029967;28;20390;-75
2020/12/15 07:58:41;;;;;;;;;;;5.80;99.90;;;;;;5033517;28;19909;-74
2020/12/15 08:01:07;;;;;;;;;;;5.80;99.90;;;;;;5021552;28;19963;-75
2020/12/15 08:03:32;;;;;;;;;;;5.90;99.90;;;;;;5025327;28;19913;-76
2020/12/15 08:06:06;;;;;;;;;;;5.90;99.90;;;;;;5011226;28;20020;-76
2020/12/15 08:08:31;;;;;;;;;;;5.90;99.90;;;;;;5012753;28;20286;-75
2020/12/15 08:10:57;;;;;;;;;;;5.90;99.90;;;;;;5013235;28;19909;-74
2020/12/15 08:13:22;;;;;;;;;;;5.90;99.90;;;;;;5013947;28;19916;-77
2020/12/15 08:15:48;;;;;;;;;;;6.00;99.90;;;;;;5017868;28;19932;-75
2020/12/15 08:18:16;;;;;;;;;;;6.00;99.90;;;;;;5028564;28;19963;-75
2020/12/15 08:20:43;;;;;;;;;;;6.10;99.90;;;;;;5030065;28;20011;-75
2020/12/15 08:23:10;;;;;;;;;;;6.10;99.90;;;;;;5031947;28;20069;-75
2020/12/15 08:25:37;;;;;;;;;;;6.20;99.90;;;;;;5013079;28;19910;-74
2020/12/15 08:28:21;;;;;;;;;;;6.20;99.90;;;;;;5019813;28;19909;-74
2020/12/15 08:30:50;;;;;;;;;;;6.30;99.90;;;;;;5016966;28;19910;-76
2020/12/15 08:33:26;;;;;;;;;;;6.30;99.90;;;;;;5028648;28;19916;-75
2020/12/15 08:35:53;;;;;;;;;;;6.30;99.90;;;;;;5020330;28;19964;-75
2020/12/15 08:38:19;;;;;;;;;;;6.30;99.90;;;;;;5012896;28;19955;-75
2020/12/15 08:40:50;;;;;;;;;;;6.30;99.90;;;;;;5018498;28;19944;-74
2020/12/15 08:43:16;;;;;;;;;;;6.30;99.90;;;;;;5020223;28;19913;-75
2020/12/15 08:45:41;;;;;;;;;;;6.40;99.90;;;;;;5023563;28;19979;-75
2020/12/15 08:48:14;;;;;;;;;;;6.50;99.90;;;;;;5013655;28;19910;-76
2020/12/15 08:50:40;;;;;;;;;;;6.50;99.90;;;;;;5022434;28;19945;-75
2020/12/15 08:53:05;;;;;;;;;;;6.50;99.90;;;;;;5016066;28;19960;-75
2020/12/15 08:55:33;;;;;;;;;;;6.50;99.90;;;;;;5017591;28;19909;-77
2020/12/15 08:57:59;;;;;;;;;;;6.60;99.90;;;;;;5031068;28;19909;-75
2020/12/15 09:00:24;;;;;;;;;;;6.60;99.90;;;;;;5016857;28;19909;-75
2020/12/15 09:02:50;;;;;;;;;;;6.70;99.90;;;;;;5019972;28;19939;-75
2020/12/15 09:05:15;;;;;;;;;;;6.70;99.90;;;;;;5011322;28;19940;-78
2020/12/15 09:07:41;;;;;;;;;;;6.70;99.90;;;;;;5024950;28;19909;-75
2020/12/15 09:10:14;;;;;;;;;;;6.70;99.90;;;;;;5026409;28;20047;-75
2020/12/15 09:12:46;;;;;;;;;;;6.60;99.90;;;;;;5023898;28;20380;-79
2020/12/15 09:15:12;;;;;;;;;;;6.60;99.90;;;;;;5011639;28;19980;-75
2020/12/15 09:17:38;;;;;;;;;;;6.60;99.90;;;;;;5014767;28;19909;-78
2020/12/15 09:20:04;;;;;;;;;;;6.70;99.90;;;;;;5020950;28;19961;-74
2020/12/15 09:22:30;;;;;;;;;;;6.70;99.90;;;;;;5024660;28;20004;-77
2020/12/15 09:24:57;;;;;;;;;;;6.70;99.90;;;;;;5013223;28;19944;-75
2020/12/15 09:27:23;;;;;;;;;;;6.80;99.90;;;;;;5031207;28;19909;-75
2020/12/15 09:29:49;;;;;;;;;;;6.80;99.90;;;;;;5025917;28;19910;-75
2020/12/15 09:32:17;;;;;;;;;;;6.80;99.90;;;;;;5021627;28;20335;-75
2020/12/15 09:34:43;;;;;;;;;;;6.80;99.90;;;;;;5020542;28;20316;-75
2020/12/15 09:37:08;;;;;;;;;;;6.80;99.90;;;;;;5015813;28;19910;-75
2020/12/15 09:39:34;;;;;;;;;;;6.80;99.90;;;;;;5017887;28;19913;-74
2020/12/15 09:42:00;;;;;;;;;;;6.80;99.90;;;;;;5007236;28;19952;-75
2020/12/15 09:44:26;;;;;;;;;;;6.80;99.90;;;;;;5013322;28;19910;-75
2020/12/15 09:46:52;;;;;;;;;;;6.80;99.90;;;;;;5008358;28;19909;-74
2020/12/15 09:49:17;;;;;;;;;;;6.90;99.90;;;;;;5019188;28;19929;-75
2020/12/15 09:51:43;;;;;;;;;;;6.90;99.90;;;;;;5028092;28;19909;-75
2020/12/15 09:54:09;;;;;;;;;;;7.00;99.90;;;;;;5020356;28;19909;-75
2020/12/15 09:56:35;;;;;;;;;;;7.10;99.90;;;;;;5023679;28;19952;-79
2020/12/15 09:59:00;;;;;;;;;;;7.10;99.90;;;;;;5029812;28;19963;-75
2020/12/15 10:01:26;;;;;;;;;;;7.10;99.90;;;;;;5018641;28;19916;-75
2020/12/15 10:03:51;;;;;;;;;;;7.20;99.90;;;;;;5024615;28;19913;-75
2020/12/15 10:06:17;;;;;;;;;;;7.30;99.90;;;;;;5031225;28;19967;-79
2020/12/15 10:08:42;;;;;;;;;;;7.40;99.90;;;;;;5023930;28;20487;-75
2020/12/15 10:11:12;;;;;;;;;;;7.40;99.90;;;;;;5015943;28;19913;-75
2020/12/15 10:13:37;;;;;;;;;;;7.40;99.90;;;;;;5010363;28;20363;-75
2020/12/15 10:16:03;;;;;;;;;;;7.50;99.90;;;;;;5010356;28;19910;-78
2020/12/15 10:18:28;;;;;;;;;;;7.60;99.90;;;;;;5011994;28;20318;-75
2020/12/15 10:20:54;;;;;;;;;;;7.80;99.90;;;;;;5011693;28;19910;-77
2020/12/15 10:23:19;;;;;;;;;;;7.90;99.90;;;;;;5020506;28;20148;-75
2020/12/15 10:25:45;;;;;;;;;;;8.10;99.90;;;;;;5011593;28;20278;-75
2020/12/15 10:28:11;;;;;;;;;;;8.30;99.90;;;;;;5011976;28;19967;-75
2020/12/15 10:30:37;;;;;;;;;;;8.40;99.90;;;;;;5012820;28;20390;-75
2020/12/15 10:33:03;;;;;;;;;;;8.60;99.90;;;;;;5015462;28;19957;-75
2020/12/15 10:35:28;;;;;;;;;;;8.70;99.90;;;;;;5015796;28;19909;-75
2020/12/15 10:37:54;;;;;;;;;;;8.80;99.90;;;;;;5029450;28;19913;-76
2020/12/15 10:40:19;;;;;;;;;;;8.80;99.90;;;;;;5018069;28;19910;-75
2020/12/15 10:42:45;;;;;;;;;;;8.80;99.90;;;;;;5015656;28;19914;-75
2020/12/15 10:45:10;;;;;;;;;;;8.80;99.90;;;;;;5015642;28;19959;-73
2020/12/15 10:47:36;;;;;;;;;;;8.80;99.90;;;;;;5015487;28;19917;-74
2020/12/15 10:50:02;;;;;;;;;;;8.90;99.90;;;;;;5015383;28;19979;-73
2020/12/15 10:52:27;;;;;;;;;;;9.00;99.90;;;;;;5018418;28;19962;-73
2020/12/15 10:54:53;;;;;;;;;;;8.90;99.90;;;;;;5035075;28;19909;-74
2020/12/15 10:57:18;;;;;;;;;;;8.90;99.90;;;;;;5033507;28;19913;-73
2020/12/15 10:59:44;;;;;;;;;;;8.80;99.90;;;;;;5035087;28;20291;-76
2020/12/15 11:02:09;;;;;;;;;;;8.80;99.90;;;;;;5034897;28;19975;-73
2020/12/15 11:04:35;;;;;;;;;;;8.70;99.90;;;;;;5034946;28;19956;-73
2020/12/15 11:07:01;;;;;;;;;;;8.70;99.90;;;;;;5034374;28;19914;-73
2020/12/15 11:09:26;;;;;;;;;;;8.70;99.90;;;;;;5035099;28;20436;-74
2020/12/15 11:11:52;;;;;;;;;;;8.80;99.90;;;;;;5034939;28;19996;-73
2020/12/15 11:14:17;;;;;;;;;;;8.90;99.90;;;;;;5034905;28;19963;-73
2020/12/15 11:16:45;;;;;;;;;;;8.90;99.90;;;;;;5034296;28;19909;-73
2020/12/15 11:19:10;;;;;;;;;;;9.00;99.90;;;;;;5034224;28;20282;-73
2020/12/15 11:21:36;;;;;;;;;;;9.20;99.90;;;;;;5034012;28;19932;-73
2020/12/15 11:24:01;;;;;;;;;;;9.30;99.90;;;;;;5032650;28;19913;-75
2020/12/15 11:26:27;;;;;;;;;;;9.40;99.90;;;;;;5034213;28;20406;-77
2020/12/15 11:28:53;;;;;;;;;;;9.50;99.90;;;;;;5034312;28;19955;-75
2020/12/15 11:31:18;;;;;;;;;;;9.50;99.90;;;;;;5034225;28;19999;-75
2020/12/15 11:33:45;;;;;;;;;;;9.60;99.90;;;;;;5033848;28;20052;-75
2020/12/15 11:36:10;;;;;;;;;;;9.60;99.90;;;;;;5026296;28;19920;-75
2020/12/15 11:38:39;;;;;;;;;;;9.70;99.90;;;;;;5022532;28;19909;-75
2020/12/15 11:41:05;;;;;;;;;;;9.70;99.90;;;;;;5013808;28;19916;-75
2020/12/15 11:43:30;;;;;;;;;;;9.70;99.90;;;;;;5012470;28;19921;-75
2020/12/15 11:45:56;;;;;;;;;;;9.80;99.90;;;;;;5013769;28;19999;-75
2020/12/15 11:48:21;;;;;;;;;;;9.90;99.90;;;;;;5013798;28;19910;-77
2020/12/15 11:50:48;;;;;;;;;;;10.00;99.90;;;;;;5012484;28;19917;-75
2020/12/15 11:53:14;;;;;;;;;;;10.00;99.90;;;;;;5021366;28;19913;-79
2020/12/15 11:55:39;;;;;;;;;;;10.10;99.90;;;;;;5020274;28;19932;-78
2020/12/15 11:58:05;;;;;;;;;;;10.20;99.90;;;;;;5013576;28;20377;-79
2020/12/15 12:00:30;;;;;;;;;;;10.20;99.90;;;;;;5012570;28;19964;-76
2020/12/15 12:02:56;;;;;;;;;;;10.20;99.90;;;;;;5013619;28;19920;-76
2020/12/15 12:05:21;;;;;;;;;;;10.30;99.90;;;;;;5012729;28;19963;-75
2020/12/15 12:07:47;;;;;;;;;;;10.40;99.90;;;;;;5026032;28;19909;-73
2020/12/15 12:10:13;;;;;;;;;;;10.50;99.90;;;;;;5033376;28;19909;-73
2020/12/15 12:12:39;;;;;;;;;;;10.50;99.90;;;;;;5033256;28;19932;-73
2020/12/15 12:15:04;;;;;;;;;;;10.60;99.90;;;;;;5033225;28;19910;-74
2020/12/15 12:17:30;;;;;;;;;;;10.60;99.90;;;;;;5032784;28;20404;-76
2020/12/15 12:19:55;;;;;;;;;;;10.60;99.90;;;;;;5025362;28;19917;-73
2020/12/15 12:22:21;;;;;;;;;;;10.60;99.90;;;;;;5021705;28;19917;-73
2020/12/15 12:24:46;;;;;;;;;;;10.70;99.90;;;;;;5012577;28;19914;-76
2020/12/15 12:27:12;;;;;;;;;;;10.70;99.90;;;;;;5014736;28;19921;-76
2020/12/15 12:29:38;;;;;;;;;;;10.70;99.90;;;;;;5018199;28;20382;-73
2020/12/15 12:32:04;;;;;;;;;;;10.70;99.90;;;;;;5011685;28;19917;-74
2020/12/15 12:34:29;;;;;;;;;;;10.70;99.90;;;;;;5012981;28;19968;-73
2020/12/15 12:36:55;;;;;;;;;;;10.70;99.90;;;;;;5020637;28;19909;-74
2020/12/15 12:39:20;;;;;;;;;;;10.70;99.90;;;;;;5032822;28;19960;-76
2020/12/15 12:41:52;;;;;;;;;;;10.60;99.90;;;;;;5032661;28;19913;-74
2020/12/15 12:44:21;;;;;;;;;;;10.60;99.90;;;;;;5031690;28;20294;-75
2020/12/15 12:46:50;;;;;;;;;;;10.50;99.90;;;;;;5032222;28;19909;-79
2020/12/15 12:49:16;;;;;;;;;;;10.50;99.90;;;;;;5032638;28;19921;-76
2020/12/15 12:51:41;;;;;;;;;;;10.50;99.90;;;;;;5032597;28;19915;-76
2020/12/15 12:54:07;;;;;;;;;;;10.50;99.90;;;;;;5030264;28;19909;-76
2020/12/15 12:56:32;;;;;;;;;;;10.50;99.90;;;;;;5032076;28;19909;-75
2020/12/15 12:58:58;;;;;;;;;;;10.50;99.90;;;;;;5032572;28;19963;-76
2020/12/15 13:01:23;;;;;;;;;;;10.60;99.90;;;;;;5032118;28;19917;-76
2020/12/15 13:03:49;;;;;;;;;;;10.60;99.90;;;;;;5032132;28;19936;-77
2020/12/15 13:06:15;;;;;;;;;;;10.60;99.90;;;;;;5030691;28;20382;-78
2020/12/15 13:08:41;;;;;;;;;;;10.60;99.90;;;;;;5032341;28;20027;-78
2020/12/15 13:11:06;;;;;;;;;;;10.60;99.90;;;;;;5032329;28;19941;-75
2020/12/15 13:13:32;;;;;;;;;;;10.50;99.90;;;;;;5032107;28;20416;-75
2020/12/15 13:15:57;;;;;;;;;;;10.50;99.90;;;;;;5030382;28;19915;-76
2020/12/15 13:18:23;;;;;;;;;;;10.50;99.90;;;;;;5032069;28;19919;-75
2020/12/15 13:20:48;;;;;;;;;;;10.50;99.90;;;;;;5032062;28;19910;-76
2020/12/15 13:23:14;;;;;;;;;;;10.60;99.90;;;;;;5023539;28;20012;-76
2020/12/15 13:25:39;;;;;;;;;;;10.60;99.90;;;;;;5031719;28;19909;-76
2020/12/15 13:28:05;;;;;;;;;;;10.60;99.90;;;;;;5032002;28;19928;-74
2020/12/15 13:30:30;;;;;;;;;;;10.70;99.90;;;;;;5031497;28;19913;-74
2020/12/15 13:32:56;;;;;;;;;;;10.70;99.90;;;;;;5031686;28;20301;-74
2020/12/15 13:35:21;;;;;;;;;;;10.80;99.90;;;;;;5031857;28;19909;-73
2020/12/15 13:37:47;;;;;;;;;;;10.80;99.90;;;;;;5012180;28;20420;-74
2020/12/15 13:40:13;;;;;;;;;;;10.80;99.90;;;;;;5011764;28;19916;-74
2020/12/15 13:42:38;;;;;;;;;;;10.90;99.90;;;;;;5010675;28;19914;-74
2020/12/15 13:45:05;;;;;;;;;;;10.90;99.90;;;;;;5011240;28;19949;-74
2020/12/15 13:47:31;;;;;;;;;;;11.00;99.90;;;;;;5020486;28;19913;-78
2020/12/15 13:49:57;;;;;;;;;;;11.00;99.90;;;;;;5017089;28;20074;-73
2020/12/15 13:52:23;;;;;;;;;;;11.10;99.90;;;;;;5014397;28;19965;-73
2020/12/15 13:54:49;;;;;;;;;;;11.00;99.90;;;;;;5018322;28;19986;-74
2020/12/15 13:57:15;;;;;;;;;;;10.90;99.90;;;;;;5025096;28;19913;-76
2020/12/15 13:59:40;;;;;;;;;;;10.90;99.90;;;;;;5014091;28;19914;-76
2020/12/15 14:02:06;;;;;;;;;;;10.90;99.90;;;;;;5030705;28;19914;-74
2020/12/15 14:04:32;;;;;;;;;;;10.80;99.90;;;;;;5010842;28;19913;-74
2020/12/15 14:06:57;;;;;;;;;;;10.80;99.90;;;;;;5011276;28;19968;-74
2020/12/15 14:09:23;;;;;;;;;;;10.80;99.90;;;;;;5011455;28;19937;-74
2020/12/15 14:11:48;;;;;;;;;;;10.80;99.90;;;;;;5011363;28;20362;-74
2020/12/15 14:14:13;;;;;;;;;;;10.70;99.90;;;;;;5014115;28;19959;-74
2020/12/15 14:16:42;;;;;;;;;;;10.70;99.90;;;;;;5027084;28;20035;-74
2020/12/15 14:19:07;;;;;;;;;;;10.70;99.90;;;;;;5018438;28;19909;-73
2020/12/15 14:21:33;;;;;;;;;;;10.70;99.90;;;;;;5014993;28;19960;-74
2020/12/15 14:23:58;;;;;;;;;;;10.60;99.90;;;;;;5011979;28;20368;-73